createdAt,value
2023-05-06T00:00:08.085Z,0.00
2023-05-06T00:01:08.402Z,0.00
2023-05-06T00:02:07.791Z,0.00
2023-05-06T00:03:08.495Z,0.00
2023-05-06T00:04:08.487Z,0.00
2023-05-06T00:05:08.675Z,0.00
2023-05-06T00:06:07.816Z,0.00
2023-05-06T00:07:08.452Z,0.00
2023-05-06T00:08:07.765Z,0.00
2023-05-06T00:09:07.769Z,0.00
2023-05-06T00:10:07.861Z,0.00
2023-05-06T00:11:07.866Z,0.00
2023-05-06T00:12:07.769Z,0.00
2023-05-06T00:13:08.142Z,0.00
2023-05-06T00:14:07.720Z,0.00
2023-05-06T00:15:08.164Z,0.00
2023-05-06T00:16:07.709Z,0.00
2023-05-06T00:17:08.230Z,0.00
2023-05-06T00:18:07.756Z,0.00
2023-05-06T00:19:07.709Z,0.00
2023-05-06T00:20:08.023Z,0.00
2023-05-06T00:21:07.701Z,0.00
2023-05-06T00:22:08.240Z,0.00
2023-05-06T00:23:07.669Z,0.00
2023-05-06T00:24:07.739Z,0.00
2023-05-06T00:25:08.167Z,0.00
2023-05-06T00:26:07.767Z,0.00
2023-05-06T00:27:08.174Z,0.00
2023-05-06T00:28:08.387Z,0.00
2023-05-06T00:29:07.779Z,0.00
2023-05-06T00:30:07.599Z,0.00
2023-05-06T00:31:07.789Z,0.00
2023-05-06T00:32:08.576Z,0.00
2023-05-06T00:33:08.175Z,0.00
2023-05-06T00:34:08.221Z,0.00
2023-05-06T00:35:08.739Z,0.00
2023-05-06T00:36:07.554Z,0.00
2023-05-06T00:37:07.632Z,0.00
2023-05-06T00:38:07.675Z,0.00
2023-05-06T00:39:07.657Z,0.00
2023-05-06T00:40:07.773Z,0.00
2023-05-06T00:41:07.564Z,0.00
2023-05-06T00:42:07.586Z,0.00
2023-05-06T00:43:07.702Z,0.00
2023-05-06T00:44:07.689Z,0.00
2023-05-06T00:45:07.987Z,0.00
2023-05-06T00:46:07.825Z,0.00
2023-05-06T00:47:07.696Z,0.00
2023-05-06T00:48:07.939Z,0.00
2023-05-06T00:49:07.927Z,0.00
2023-05-06T00:50:07.735Z,0.00
2023-05-06T00:51:08.053Z,0.00
2023-05-06T00:52:08.063Z,0.00
2023-05-06T00:53:07.498Z,0.00
2023-05-06T00:54:07.660Z,0.00
2023-05-06T00:55:07.670Z,0.00
2023-05-06T00:56:07.768Z,0.00
2023-05-06T00:57:07.991Z,0.00
2023-05-06T00:58:08.239Z,0.00
2023-05-06T00:59:08.307Z,0.00
2023-05-06T01:00:07.995Z,0.00
2023-05-06T01:01:08.509Z,0.00
2023-05-06T01:02:08.394Z,0.00
2023-05-06T01:03:07.772Z,0.00
2023-05-06T01:04:07.587Z,0.00
2023-05-06T01:05:07.887Z,0.00
2023-05-06T01:06:07.353Z,0.00
2023-05-06T01:07:07.463Z,0.00
2023-05-06T01:08:07.450Z,0.00
2023-05-06T01:09:07.560Z,0.00
2023-05-06T01:10:07.354Z,0.00
2023-05-06T01:11:07.356Z,0.00
2023-05-06T01:12:07.685Z,0.00
2023-05-06T01:13:07.702Z,0.00
2023-05-06T01:14:07.598Z,0.00
2023-05-06T01:15:08.102Z,0.00
2023-05-06T01:16:07.919Z,0.00
2023-05-06T01:17:08.088Z,0.00
2023-05-06T01:18:08.063Z,0.00
2023-05-06T01:19:07.623Z,0.00
2023-05-06T01:20:08.173Z,0.00
2023-05-06T01:21:08.085Z,0.00
2023-05-06T01:22:07.272Z,0.00
2023-05-06T01:23:07.456Z,0.00
2023-05-06T01:24:07.252Z,0.00
2023-05-06T01:25:08.478Z,0.00
2023-05-06T01:26:07.881Z,0.00
2023-05-06T01:27:07.272Z,0.00
2023-05-06T01:28:08.164Z,0.00
2023-05-06T01:29:08.078Z,0.00
2023-05-06T01:30:07.304Z,0.00
2023-05-06T01:31:08.010Z,0.00
2023-05-06T01:32:07.823Z,0.00
2023-05-06T01:33:07.210Z,0.00
2023-05-06T01:34:07.247Z,0.00
2023-05-06T01:35:07.294Z,0.00
2023-05-06T01:36:07.144Z,0.00
2023-05-06T01:37:07.168Z,0.00
2023-05-06T01:38:07.155Z,0.00
2023-05-06T01:39:07.269Z,0.00
2023-05-06T01:40:07.187Z,0.00
2023-05-06T01:41:07.122Z,0.00
2023-05-06T01:42:07.161Z,0.00
2023-05-06T01:43:07.090Z,0.00
2023-05-06T01:44:07.183Z,0.00
2023-05-06T01:45:07.931Z,0.00
2023-05-06T01:46:07.441Z,0.00
2023-05-06T01:47:07.733Z,0.00
2023-05-06T01:48:07.845Z,0.00
2023-05-06T01:49:07.058Z,0.00
2023-05-06T01:50:07.039Z,0.00
2023-05-06T01:51:07.054Z,0.00
2023-05-06T01:52:07.043Z,0.00
2023-05-06T01:53:07.050Z,0.00
2023-05-06T01:54:07.071Z,0.00
2023-05-06T01:55:07.271Z,0.00
2023-05-06T01:56:07.083Z,0.00
2023-05-06T01:57:07.072Z,0.00
2023-05-06T01:58:07.192Z,0.00
2023-05-06T01:59:07.200Z,0.00
2023-05-06T02:00:07.209Z,0.00
2023-05-06T02:01:07.208Z,0.00
2023-05-06T02:02:07.226Z,0.00
2023-05-06T02:03:07.082Z,0.00
2023-05-06T02:04:07.409Z,0.00
2023-05-06T02:05:07.287Z,0.00
2023-05-06T02:06:07.257Z,0.00
2023-05-06T02:07:07.055Z,0.00
2023-05-06T02:08:07.053Z,0.00
2023-05-06T02:09:07.276Z,0.00
2023-05-06T02:10:07.274Z,0.00
2023-05-06T02:11:06.905Z,0.00
2023-05-06T02:12:06.983Z,0.00
2023-05-06T02:13:07.344Z,0.00
2023-05-06T02:14:07.304Z,0.00
2023-05-06T02:15:06.938Z,0.00
2023-05-06T02:16:07.447Z,0.00
2023-05-06T02:17:07.041Z,0.00
2023-05-06T02:18:06.931Z,0.00
2023-05-06T02:19:06.929Z,0.00
2023-05-06T02:20:07.042Z,0.00
2023-05-06T02:21:06.836Z,0.00
2023-05-06T02:22:07.262Z,0.00
2023-05-06T02:23:07.371Z,0.00
2023-05-06T02:24:06.853Z,0.00
2023-05-06T02:25:06.967Z,0.00
2023-05-06T02:26:06.865Z,0.00
2023-05-06T02:27:06.918Z,0.00
2023-05-06T02:28:07.300Z,0.00
2023-05-06T02:29:07.517Z,0.00
2023-05-06T02:30:07.203Z,0.00
2023-05-06T02:31:06.832Z,0.00
2023-05-06T02:32:06.752Z,0.00
2023-05-06T02:33:06.930Z,0.00
2023-05-06T02:34:06.734Z,0.00
2023-05-06T02:35:07.051Z,0.00
2023-05-06T02:36:06.836Z,0.00
2023-05-06T02:37:06.849Z,0.00
2023-05-06T02:38:06.856Z,0.00
2023-05-06T02:39:06.863Z,0.00
2023-05-06T02:40:06.785Z,0.00
2023-05-06T02:41:06.874Z,0.00
2023-05-06T02:42:06.876Z,0.00
2023-05-06T02:43:06.899Z,0.00
2023-05-06T02:44:06.902Z,0.00
2023-05-06T02:45:07.061Z,0.00
2023-05-06T02:46:06.946Z,0.00
2023-05-06T02:47:06.927Z,0.00
2023-05-06T02:48:07.027Z,0.00
2023-05-06T02:49:07.041Z,0.00
2023-05-06T02:50:06.744Z,0.00
2023-05-06T02:51:06.950Z,0.00
2023-05-06T02:52:07.058Z,0.00
2023-05-06T02:53:07.062Z,0.00
2023-05-06T02:54:07.074Z,0.00
2023-05-06T02:55:07.186Z,0.00
2023-05-06T02:56:07.085Z,0.00
2023-05-06T02:57:06.779Z,0.00
2023-05-06T02:58:06.688Z,0.00
2023-05-06T02:59:06.599Z,0.00
2023-05-06T03:00:06.623Z,0.00
2023-05-06T03:01:06.616Z,0.00
2023-05-06T03:02:06.718Z,0.00
2023-05-06T03:03:06.623Z,0.00
2023-05-06T03:04:06.554Z,0.00
2023-05-06T03:05:06.604Z,0.00
2023-05-06T03:06:06.640Z,0.00
2023-05-06T03:07:06.661Z,0.00
2023-05-06T03:08:06.659Z,0.00
2023-05-06T03:09:06.774Z,0.00
2023-05-06T03:10:06.677Z,0.00
2023-05-06T03:11:08.120Z,0.00
2023-05-06T03:12:06.791Z,0.00
2023-05-06T03:13:06.815Z,0.00
2023-05-06T03:14:06.487Z,0.00
2023-05-06T03:15:06.701Z,0.00
2023-05-06T03:16:06.624Z,0.00
2023-05-06T03:17:06.437Z,0.00
2023-05-06T03:18:06.438Z,0.00
2023-05-06T03:19:06.429Z,4.00
2023-05-06T03:20:06.448Z,4.00
2023-05-06T03:21:06.493Z,4.00
2023-05-06T03:22:06.472Z,1.00
2023-05-06T03:23:06.458Z,0.00
2023-05-06T03:24:06.511Z,1.00
2023-05-06T03:25:06.489Z,1.00
2023-05-06T03:26:06.366Z,9.00
2023-05-06T03:27:06.484Z,5.00
2023-05-06T03:28:06.479Z,5.00
2023-05-06T03:29:06.499Z,13.00
2023-05-06T03:30:06.326Z,10.00
2023-05-06T03:31:06.330Z,10.00
2023-05-06T03:32:06.530Z,23.00
2023-05-06T03:33:06.590Z,27.00
2023-05-06T03:34:06.362Z,19.00
2023-05-06T03:35:06.670Z,32.00
2023-05-06T03:36:06.341Z,41.00
2023-05-06T03:37:06.346Z,45.00
2023-05-06T03:38:06.660Z,46.00
2023-05-06T03:39:06.366Z,59.00
2023-05-06T03:40:06.673Z,64.00
2023-05-06T03:41:06.368Z,68.00
2023-05-06T03:42:08.607Z,82.00
2023-05-06T03:43:06.281Z,100.00
2023-05-06T03:44:06.265Z,88.00
2023-05-06T03:45:06.229Z,84.00
2023-05-06T03:46:06.361Z,114.00
2023-05-06T03:47:06.226Z,127.00
2023-05-06T03:48:06.397Z,141.00
2023-05-06T03:49:06.333Z,151.00
2023-05-06T03:50:06.355Z,169.00
2023-05-06T03:51:06.346Z,190.00
2023-05-06T03:52:06.246Z,212.00
2023-05-06T03:53:06.352Z,235.00
2023-05-06T03:54:06.351Z,248.00
2023-05-06T03:55:06.416Z,269.00
2023-05-06T03:56:06.372Z,278.00
2023-05-06T03:57:06.389Z,296.00
2023-05-06T03:58:06.252Z,308.00
2023-05-06T03:59:06.117Z,331.00
2023-05-06T04:00:06.141Z,363.00
2023-05-06T04:01:06.316Z,372.00
2023-05-06T04:02:06.353Z,397.00
2023-05-06T04:03:06.522Z,412.00
2023-05-06T04:04:06.584Z,422.00
2023-05-06T04:05:06.333Z,449.00
2023-05-06T04:06:06.136Z,485.00
2023-05-06T04:07:06.346Z,490.00
2023-05-06T04:08:06.576Z,503.00
2023-05-06T04:09:06.127Z,528.00
2023-05-06T04:10:06.268Z,552.00
2023-05-06T04:11:06.583Z,571.00
2023-05-06T04:12:06.586Z,586.00
2023-05-06T04:13:06.618Z,594.00
2023-05-06T04:14:06.209Z,632.00
2023-05-06T04:15:06.043Z,655.00
2023-05-06T04:16:06.155Z,686.00
2023-05-06T04:17:06.142Z,707.00
2023-05-06T04:18:06.130Z,716.00
2023-05-06T04:19:06.705Z,750.00
2023-05-06T04:20:06.344Z,782.00
2023-05-06T04:21:06.349Z,805.00
2023-05-06T04:22:06.468Z,828.00
2023-05-06T04:23:06.068Z,867.00
2023-05-06T04:24:06.059Z,918.00
2023-05-06T04:25:06.069Z,987.00
2023-05-06T04:26:06.002Z,1060.00
2023-05-06T04:27:06.049Z,1127.00
2023-05-06T04:28:06.117Z,1112.00
2023-05-06T04:29:06.011Z,1177.00
2023-05-06T04:30:05.903Z,1227.00
2023-05-06T04:31:05.910Z,1541.00
2023-05-06T04:32:06.150Z,1800.00
2023-05-06T04:33:06.113Z,1703.00
2023-05-06T04:34:05.901Z,1556.00
2023-05-06T04:35:06.251Z,1457.00
2023-05-06T04:36:06.455Z,1719.00
2023-05-06T04:37:06.470Z,1947.00
2023-05-06T04:38:06.680Z,2171.00
2023-05-06T04:39:06.807Z,1893.00
2023-05-06T04:40:06.485Z,1938.00
2023-05-06T04:41:06.161Z,2072.00
2023-05-06T04:42:06.416Z,2201.00
2023-05-06T04:43:06.857Z,2151.00
2023-05-06T04:44:06.755Z,2124.00
2023-05-06T04:45:06.042Z,2167.00
2023-05-06T04:46:06.563Z,2226.00
2023-05-06T04:47:06.536Z,2287.00
2023-05-06T04:48:06.456Z,2467.00
2023-05-06T04:49:06.793Z,2452.00
2023-05-06T04:50:06.123Z,2547.00
2023-05-06T04:51:06.605Z,2648.00
2023-05-06T04:52:05.788Z,2709.00
2023-05-06T04:53:05.757Z,2701.00
2023-05-06T04:54:05.794Z,2589.00
2023-05-06T04:55:05.778Z,2829.00
2023-05-06T04:56:05.898Z,3011.00
2023-05-06T04:57:05.922Z,3000.00
2023-05-06T04:58:05.796Z,2914.00
2023-05-06T04:59:05.896Z,2849.00
2023-05-06T05:00:05.721Z,2924.00
2023-05-06T05:01:05.839Z,3048.00
2023-05-06T05:02:06.161Z,3047.00
2023-05-06T05:03:05.997Z,2987.00
2023-05-06T05:04:05.751Z,3022.00
2023-05-06T05:05:05.759Z,2999.00
2023-05-06T05:06:05.860Z,3077.00
2023-05-06T05:07:05.872Z,3042.00
2023-05-06T05:08:05.965Z,3125.00
2023-05-06T05:09:05.980Z,3197.00
2023-05-06T05:10:05.995Z,3210.00
2023-05-06T05:11:05.788Z,3201.00
2023-05-06T05:12:05.682Z,3230.00
2023-05-06T05:13:06.036Z,3304.00
2023-05-06T05:14:06.217Z,3322.00
2023-05-06T05:15:06.343Z,3333.00
2023-05-06T05:16:05.924Z,3302.00
2023-05-06T05:17:05.679Z,3358.00
2023-05-06T05:18:06.117Z,3388.00
2023-05-06T05:19:09.105Z,3432.00
2023-05-06T05:20:06.369Z,3469.00
2023-05-06T05:21:05.562Z,3468.00
2023-05-06T05:22:05.854Z,3458.00
2023-05-06T05:23:06.606Z,3470.00
2023-05-06T05:24:05.653Z,3491.00
2023-05-06T05:25:07.840Z,3502.00
2023-05-06T05:26:05.586Z,3560.00
2023-05-06T05:27:05.597Z,3566.00
2023-05-06T05:28:05.698Z,3628.00
2023-05-06T05:29:05.706Z,3667.00
2023-05-06T05:30:05.821Z,3613.00
2023-05-06T05:31:06.347Z,3657.00
2023-05-06T05:32:05.723Z,3665.00
2023-05-06T05:33:06.018Z,3711.00
2023-05-06T05:34:06.052Z,3782.00
2023-05-06T05:35:06.082Z,3806.00
2023-05-06T05:36:05.462Z,3853.00
2023-05-06T05:37:06.207Z,3870.00
2023-05-06T05:38:06.262Z,3854.00
2023-05-06T05:39:05.979Z,3875.00
2023-05-06T05:40:06.247Z,3916.00
2023-05-06T05:41:05.697Z,3931.00
2023-05-06T05:42:06.305Z,3959.00
2023-05-06T05:43:06.206Z,3982.00
2023-05-06T05:44:06.025Z,4017.00
2023-05-06T05:45:05.409Z,4040.00
2023-05-06T05:46:06.470Z,4075.00
2023-05-06T05:47:06.338Z,4106.00
2023-05-06T05:48:05.900Z,4113.00
2023-05-06T05:49:05.652Z,4092.00
2023-05-06T05:50:06.319Z,4103.00
2023-05-06T05:51:05.356Z,4178.00
2023-05-06T05:52:05.354Z,4196.00
2023-05-06T05:53:05.368Z,4229.00
2023-05-06T05:54:05.379Z,4274.00
2023-05-06T05:55:05.418Z,4283.00
2023-05-06T06:00:37.424Z,0.00
2023-05-06T06:01:37.542Z,4516.00
2023-05-06T06:02:37.430Z,4285.00
2023-05-06T06:03:37.505Z,4324.00
2023-05-06T06:04:37.465Z,4342.00
2023-05-06T06:05:37.402Z,4371.00
2023-05-06T06:06:37.361Z,4396.00
2023-05-06T06:07:37.356Z,4405.00
2023-05-06T06:08:37.349Z,4405.00
2023-05-06T06:09:37.387Z,4410.00
2023-05-06T06:12:04.024Z,0.00
2023-05-06T06:13:04.964Z,4351.00
2023-05-06T06:14:03.292Z,4461.00
2023-05-06T06:15:03.282Z,4549.00
2023-05-06T06:16:03.346Z,4295.00
2023-05-06T06:17:03.256Z,4470.00
2023-05-06T06:18:03.277Z,4466.00
2023-05-06T06:19:03.261Z,4440.00
2023-05-06T06:20:03.241Z,4478.00
2023-05-06T06:21:03.254Z,4495.00
2023-05-06T06:23:29.273Z,0.00
2023-05-06T06:24:29.830Z,4522.00
2023-05-06T06:25:29.199Z,4527.00
2023-05-06T06:26:29.164Z,4533.00
2023-05-06T06:27:29.237Z,4539.00
2023-05-06T06:29:55.314Z,0.00
2023-05-06T06:30:55.406Z,4599.00
2023-05-06T06:31:55.482Z,4620.00
2023-05-06T06:32:55.416Z,4643.00
2023-05-06T06:35:21.260Z,0.00
2023-05-06T06:36:21.050Z,4755.00
2023-05-06T06:37:21.103Z,4709.00
2023-05-06T06:38:21.038Z,4682.00
2023-05-06T06:39:21.038Z,4729.00
2023-05-06T06:40:21.032Z,4742.00
2023-05-06T06:41:21.024Z,4718.00
2023-05-06T06:42:21.075Z,4756.00
2023-05-06T06:43:21.302Z,4762.00
2023-05-06T06:44:21.073Z,4764.00
2023-05-06T06:45:21.066Z,4762.00
2023-05-06T06:46:21.499Z,4785.00
2023-05-06T06:47:21.081Z,4782.00
2023-05-06T06:48:21.361Z,4845.00
2023-05-06T06:49:21.943Z,4937.00
2023-05-06T06:50:21.040Z,4846.00
2023-05-06T06:51:21.394Z,4859.00
2023-05-06T06:52:21.021Z,4904.00
2023-05-06T06:53:20.974Z,4893.00
2023-05-06T06:54:20.988Z,4925.00
2023-05-06T06:55:20.962Z,4902.00
2023-05-06T06:56:21.005Z,4932.00
2023-05-06T06:57:20.964Z,4976.00
2023-05-06T06:58:20.998Z,5025.00
2023-05-06T06:59:21.063Z,5005.00
2023-05-06T07:00:21.155Z,4982.00
2023-05-06T07:01:21.097Z,5027.00
2023-05-06T07:02:20.941Z,5065.00
2023-05-06T07:03:21.108Z,5119.00
2023-05-06T07:04:20.945Z,5047.00
2023-05-06T07:05:21.173Z,5116.00
2023-05-06T07:06:21.143Z,5160.00
2023-05-06T07:07:21.172Z,5100.00
2023-05-06T07:08:21.172Z,5114.00
2023-05-06T07:09:20.883Z,5111.00
2023-05-06T07:10:21.016Z,5041.00
2023-05-06T07:11:20.850Z,5351.00
2023-05-06T07:12:20.887Z,4810.00
2023-05-06T07:13:20.971Z,5137.00
2023-05-06T07:14:20.973Z,5052.00
2023-05-06T07:15:20.835Z,5091.00
2023-05-06T07:16:21.104Z,5103.00
2023-05-06T07:17:21.150Z,5064.00
2023-05-06T07:18:20.924Z,5119.00
2023-05-06T07:19:21.264Z,5104.00
2023-05-06T07:20:21.035Z,5200.00
2023-05-06T07:21:21.290Z,5200.00
2023-05-06T07:22:21.371Z,5005.00
2023-05-06T07:23:21.375Z,5197.00
2023-05-06T07:24:21.384Z,5101.00
2023-05-06T07:25:21.300Z,5252.00
2023-05-06T07:26:21.405Z,5228.00
2023-05-06T07:27:20.736Z,5235.00
2023-05-06T07:28:20.750Z,5149.00
2023-05-06T07:29:20.699Z,5232.00
2023-05-06T07:30:23.036Z,5271.00
2023-05-06T07:31:20.745Z,5250.00
2023-05-06T07:32:20.714Z,5249.00
2023-05-06T07:33:20.706Z,5289.00
2023-05-06T07:34:20.707Z,5254.00
2023-05-06T07:35:20.733Z,5279.00
2023-05-06T07:36:20.734Z,5348.00
2023-05-06T07:37:20.752Z,5348.00
2023-05-06T07:38:20.755Z,5344.00
2023-05-06T07:39:20.779Z,5335.00
2023-05-06T07:40:20.677Z,5324.00
2023-05-06T07:41:20.769Z,5290.00
2023-05-06T07:42:20.810Z,5339.00
2023-05-06T07:43:20.823Z,5345.00
2023-05-06T07:44:20.688Z,5349.00
2023-05-06T07:45:20.855Z,5424.00
2023-05-06T07:46:20.953Z,5390.00
2023-05-06T07:47:20.664Z,5391.00
2023-05-06T07:48:20.714Z,5388.00
2023-05-06T07:49:20.852Z,5426.00
2023-05-06T07:50:20.738Z,5421.00
2023-05-06T07:51:20.919Z,5556.00
2023-05-06T07:52:20.894Z,5435.00
2023-05-06T07:53:20.818Z,5538.00
2023-05-06T07:54:20.543Z,5451.00
2023-05-06T07:55:20.612Z,5517.00
2023-05-06T07:56:20.584Z,5484.00
2023-05-06T07:57:20.677Z,5503.00
2023-05-06T07:58:20.722Z,5460.00
2023-05-06T07:59:20.532Z,5500.00
2023-05-06T08:00:20.844Z,5552.00
2023-05-06T08:01:20.855Z,5550.00
2023-05-06T08:02:20.771Z,5583.00
2023-05-06T08:03:21.099Z,5587.00
2023-05-06T08:04:21.105Z,5612.00
2023-05-06T08:05:21.131Z,5540.00
2023-05-06T08:06:21.118Z,5589.00
2023-05-06T08:07:20.477Z,5582.00
2023-05-06T08:08:20.440Z,5599.00
2023-05-06T08:09:22.872Z,5613.00
2023-05-06T08:10:20.468Z,5664.00
2023-05-06T08:11:20.428Z,5651.00
2023-05-06T08:12:20.485Z,5696.00
2023-05-06T08:13:20.568Z,5694.00
2023-05-06T08:14:20.507Z,5733.00
2023-05-06T08:15:20.389Z,5746.00
2023-05-06T08:16:21.616Z,5747.00
2023-05-06T08:17:20.548Z,5754.00
2023-05-06T08:18:22.977Z,5777.00
2023-05-06T08:19:20.374Z,5772.00
2023-05-06T08:20:20.534Z,5809.00
2023-05-06T08:21:20.590Z,5886.00
2023-05-06T08:22:20.598Z,5860.00
2023-05-06T08:23:20.621Z,5848.00
2023-05-06T08:24:20.334Z,5821.00
2023-05-06T08:25:20.362Z,5924.00
2023-05-06T08:26:20.326Z,5888.00
2023-05-06T08:27:20.322Z,5928.00
2023-05-06T08:28:20.337Z,6162.00
2023-05-06T08:29:20.309Z,5928.00
2023-05-06T08:30:20.333Z,6041.00
2023-05-06T08:31:20.337Z,6169.00
2023-05-06T08:32:20.298Z,6232.00
2023-05-06T08:33:20.287Z,6292.00
2023-05-06T08:34:20.757Z,6331.00
2023-05-06T08:35:20.504Z,6366.00
2023-05-06T08:36:20.261Z,6359.00
2023-05-06T08:37:20.263Z,6343.00
2023-05-06T08:38:20.463Z,6402.00
2023-05-06T08:39:20.275Z,6376.00
2023-05-06T08:40:20.265Z,6305.00
2023-05-06T08:41:20.850Z,6273.00
2023-05-06T08:42:20.368Z,6273.00
2023-05-06T08:43:20.191Z,6264.00
2023-05-06T08:44:20.194Z,6268.00
2023-05-06T08:45:20.219Z,6296.00
2023-05-06T08:46:20.316Z,6362.00
2023-05-06T08:47:20.232Z,6258.00
2023-05-06T08:48:20.239Z,6191.00
2023-05-06T08:49:20.270Z,6417.00
2023-05-06T08:50:20.322Z,6137.00
2023-05-06T08:51:20.216Z,6333.00
2023-05-06T08:52:20.145Z,6236.00
2023-05-06T08:53:20.223Z,6355.00
2023-05-06T08:54:20.291Z,6394.00
2023-05-06T08:55:20.367Z,6392.00
2023-05-06T08:56:20.118Z,6367.00
2023-05-06T08:57:20.246Z,6192.00
2023-05-06T08:58:20.389Z,6255.00
2023-05-06T08:59:20.086Z,6249.00
2023-05-06T09:00:20.440Z,6224.00
2023-05-06T09:01:20.153Z,6275.00
2023-05-06T09:02:20.120Z,6173.00
2023-05-06T09:03:20.163Z,6200.00
2023-05-06T09:04:20.152Z,6174.00
2023-05-06T09:05:20.062Z,6189.00
2023-05-06T09:06:20.216Z,6069.00
2023-05-06T09:07:20.336Z,6209.00
2023-05-06T09:08:20.218Z,6212.00
2023-05-06T09:09:20.380Z,6223.00
2023-05-06T09:10:20.593Z,6307.00
2023-05-06T09:11:20.193Z,6283.00
2023-05-06T09:12:20.529Z,6350.00
2023-05-06T09:13:20.696Z,6343.00
2023-05-06T09:14:20.604Z,6305.00
2023-05-06T09:15:20.622Z,6349.00
2023-05-06T09:16:20.680Z,6361.00
2023-05-06T09:17:20.629Z,6377.00
2023-05-06T09:18:20.643Z,6358.00
2023-05-06T09:19:20.456Z,6349.00
2023-05-06T09:20:20.373Z,6382.00
2023-05-06T09:21:19.975Z,6451.00
2023-05-06T09:22:19.988Z,6444.00
2023-05-06T09:23:20.052Z,6437.00
2023-05-06T09:24:20.112Z,6473.00
2023-05-06T09:25:20.144Z,6482.00
2023-05-06T09:26:20.226Z,6649.00
2023-05-06T09:27:20.357Z,6833.00
2023-05-06T09:28:20.404Z,6856.00
2023-05-06T09:29:19.853Z,6674.00
2023-05-06T09:30:19.864Z,6792.00
2023-05-06T09:31:20.653Z,6938.00
2023-05-06T09:32:19.993Z,6885.00
2023-05-06T09:33:19.845Z,7211.00
2023-05-06T09:34:20.271Z,7663.00
2023-05-06T09:35:19.931Z,7667.00
2023-05-06T09:36:20.243Z,7352.00
2023-05-06T09:37:20.238Z,7015.00
2023-05-06T09:38:20.250Z,7558.00
2023-05-06T09:39:19.921Z,7224.00
2023-05-06T09:40:20.315Z,7452.00
2023-05-06T09:41:20.421Z,7500.00
2023-05-06T09:42:20.192Z,7263.00
2023-05-06T09:43:20.163Z,7481.00
2023-05-06T09:44:20.464Z,7987.00
2023-05-06T09:45:20.636Z,8025.00
2023-05-06T09:46:20.501Z,7657.00
2023-05-06T09:47:19.769Z,7912.00
2023-05-06T09:48:20.082Z,8285.00
2023-05-06T09:49:19.803Z,8814.00
2023-05-06T09:50:19.881Z,8599.00
2023-05-06T09:51:19.884Z,8547.00
2023-05-06T09:52:19.816Z,8273.00
2023-05-06T09:53:20.036Z,8889.00
2023-05-06T09:54:20.074Z,9454.00
2023-05-06T09:55:19.816Z,9570.00
2023-05-06T09:56:19.839Z,8804.00
2023-05-06T09:57:19.697Z,8685.00
2023-05-06T09:58:19.730Z,8847.00
2023-05-06T09:59:19.779Z,8895.00
2023-05-06T10:00:19.688Z,8767.00
2023-05-06T10:01:32.805Z,9385.00
2023-05-06T10:02:20.115Z,9691.00
2023-05-06T10:03:20.088Z,11469.00
2023-05-06T10:04:20.084Z,10258.00
2023-05-06T10:05:20.158Z,7474.00
2023-05-06T10:06:20.118Z,11342.00
2023-05-06T10:07:20.160Z,10006.00
2023-05-06T10:08:19.710Z,9492.00
2023-05-06T10:09:19.710Z,7814.00
2023-05-06T10:10:20.319Z,12590.00
2023-05-06T10:11:20.060Z,9330.00
2023-05-06T10:12:20.390Z,11499.00
2023-05-06T10:13:20.291Z,11920.00
2023-05-06T10:14:19.592Z,11958.00
2023-05-06T10:15:19.685Z,11918.00
2023-05-06T10:16:19.891Z,12594.00
2023-05-06T10:17:20.218Z,11945.00
2023-05-06T10:18:19.635Z,12087.00
2023-05-06T10:19:19.544Z,12471.00
2023-05-06T10:20:19.607Z,12328.00
2023-05-06T10:21:19.589Z,12145.00
2023-05-06T10:22:19.763Z,12386.00
2023-05-06T10:23:19.846Z,12205.00
2023-05-06T10:24:19.610Z,12146.00
2023-05-06T10:25:19.862Z,12241.00
2023-05-06T10:26:19.518Z,12170.00
2023-05-06T10:27:19.901Z,12046.00
2023-05-06T10:28:30.363Z,12124.00
2023-05-06T10:29:20.067Z,12666.00
2023-05-06T10:30:20.105Z,13962.00
2023-05-06T10:31:19.465Z,13913.00
2023-05-06T10:32:20.342Z,14207.00
2023-05-06T10:33:19.999Z,14002.00
2023-05-06T10:34:19.479Z,13189.00
2023-05-06T10:35:20.426Z,12910.00
2023-05-06T10:36:20.411Z,12793.00
2023-05-06T10:37:19.551Z,12300.00
2023-05-06T10:38:20.217Z,12011.00
2023-05-06T10:39:19.557Z,11875.00
2023-05-06T10:40:20.193Z,12835.00
2023-05-06T10:41:20.267Z,13121.00
2023-05-06T10:42:19.915Z,12591.00
2023-05-06T10:43:19.345Z,13473.00
2023-05-06T10:44:19.333Z,14701.00
2023-05-06T10:45:19.461Z,14089.00
2023-05-06T10:46:19.370Z,14560.00
2023-05-06T10:47:19.417Z,16479.00
2023-05-06T10:48:19.370Z,16423.00
2023-05-06T10:49:19.371Z,15112.00
2023-05-06T10:50:19.304Z,8283.00
2023-05-06T10:51:19.395Z,13539.00
2023-05-06T10:52:19.395Z,62770.00
2023-05-06T10:53:19.416Z,149452.00
2023-05-06T10:54:19.524Z,149278.00
2023-05-06T10:55:19.509Z,150467.00
2023-05-06T10:56:19.564Z,151252.00
2023-05-06T10:57:19.629Z,149194.00
2023-05-06T10:58:19.699Z,149721.00
2023-05-06T10:59:19.295Z,148148.00
2023-05-06T11:00:19.222Z,149770.00
2023-05-06T11:01:19.867Z,148792.00
2023-05-06T11:02:21.064Z,149615.00
2023-05-06T11:03:19.993Z,149070.00
2023-05-06T11:04:19.272Z,151526.00
2023-05-06T11:05:19.241Z,158602.00
2023-05-06T11:06:19.254Z,160960.00
2023-05-06T11:07:19.266Z,165951.00
2023-05-06T11:08:19.282Z,165489.00
2023-05-06T11:09:19.313Z,156073.00
2023-05-06T11:10:19.302Z,153107.00
2023-05-06T11:11:19.135Z,157867.00
2023-05-06T11:12:19.271Z,155721.00
2023-05-06T11:13:19.207Z,152688.00
2023-05-06T11:14:19.166Z,151393.00
2023-05-06T11:15:19.197Z,118649.00
2023-05-06T11:16:19.267Z,19449.00
2023-05-06T11:17:19.255Z,13366.00
2023-05-06T11:18:19.313Z,164197.00
2023-05-06T11:19:19.288Z,163020.00
2023-05-06T11:20:19.422Z,163458.00
2023-05-06T11:21:19.524Z,162721.00
2023-05-06T11:22:19.481Z,160949.00
2023-05-06T11:23:19.474Z,164094.00
2023-05-06T11:24:19.081Z,163919.00
2023-05-06T11:25:19.516Z,163338.00
2023-05-06T11:26:19.165Z,164054.00
2023-05-06T11:27:19.538Z,163930.00
2023-05-06T11:28:19.540Z,165216.00
2023-05-06T11:29:19.554Z,162389.00
2023-05-06T11:30:19.575Z,159554.00
2023-05-06T11:31:19.251Z,160082.00
2023-05-06T11:32:19.590Z,163934.00
2023-05-06T11:33:19.435Z,164651.00
2023-05-06T11:34:19.242Z,125825.00
2023-05-06T11:35:19.271Z,12653.00
2023-05-06T11:36:19.034Z,162992.00
2023-05-06T11:37:19.678Z,164777.00
2023-05-06T11:38:19.007Z,162009.00
2023-05-06T11:39:19.166Z,157889.00
2023-05-06T11:41:45.422Z,0.00
2023-05-06T11:42:45.151Z,164310.00
2023-05-06T11:43:45.608Z,157621.00
2023-05-06T11:44:45.787Z,153382.00
2023-05-06T11:45:44.876Z,151363.00
2023-05-06T11:46:44.999Z,155561.00
2023-05-06T11:47:44.874Z,162757.00
2023-05-06T11:48:44.847Z,163845.00
2023-05-06T11:49:44.846Z,163187.00
2023-05-06T11:50:44.863Z,163972.00
2023-05-06T11:51:44.868Z,160272.00
2023-05-06T11:52:44.834Z,163053.00
2023-05-06T11:53:44.886Z,156875.00
2023-05-06T11:54:44.920Z,158360.00
2023-05-06T11:55:44.909Z,150086.00
2023-05-06T11:56:44.930Z,133207.00
2023-05-06T11:57:44.801Z,15936.00
2023-05-06T11:58:44.963Z,140092.00
2023-05-06T11:59:44.972Z,26636.00
2023-05-06T12:00:44.821Z,166182.00
2023-05-06T12:01:44.991Z,153287.00
2023-05-06T12:02:45.070Z,141435.00
2023-05-06T12:03:45.218Z,74817.00
2023-05-06T12:04:45.074Z,38822.00
2023-05-06T12:05:44.905Z,167815.00
2023-05-06T12:06:45.068Z,129847.00
2023-05-06T12:07:45.071Z,30611.00
2023-05-06T12:08:45.095Z,52521.00
2023-05-06T12:09:45.093Z,18248.00
2023-05-06T12:10:45.197Z,148197.00
2023-05-06T12:11:45.153Z,133525.00
2023-05-06T12:12:44.726Z,16988.00
2023-05-06T12:13:44.722Z,124849.00
2023-05-06T12:14:44.747Z,31557.00
2023-05-06T12:15:44.912Z,28180.00
2023-05-06T12:16:44.961Z,26122.00
2023-05-06T12:17:44.988Z,23878.00
2023-05-06T12:18:44.793Z,19579.00
2023-05-06T12:19:44.652Z,16556.00
2023-05-06T12:20:44.745Z,15498.00
2023-05-06T12:21:44.761Z,17027.00
2023-05-06T12:22:44.815Z,19902.00
2023-05-06T12:23:44.894Z,18807.00
2023-05-06T12:24:44.659Z,26908.00
2023-05-06T12:25:44.610Z,54001.00
2023-05-06T12:26:44.900Z,67824.00
2023-05-06T12:27:44.579Z,17375.00
2023-05-06T12:28:44.618Z,162428.00
2023-05-06T12:29:44.589Z,165228.00
2023-05-06T12:30:44.616Z,135464.00
2023-05-06T12:31:44.703Z,42281.00
2023-05-06T12:32:44.655Z,22204.00